2°C
Woerden, The Nederlands
Taal:  Nederlands
Updated23/01/2021 22:15 
 

Nearby METAR Reports

EHAM - Amsterdam/Schiph, Netherlands
Distance from station: N 27km
Updated: 23/01/2021 21:55
Gedeeltelijk bewolkt
Gedeeltelijk bewolkt
 Wind van W
Wind: W 6 km/h
Temperatuur: 2°C
Dauwpunt: 1°C
Vochtigheid: 93%
Barometer: 993 hPa
Clouds: Gedeeltelijk bewolkt
Visibility: 10 km
Cloud details: Few Clouds 701 m
Gedeeltelijk bewolkt 1067 m
2021/01/23 20:55 EHAM 232055Z 28003KT 9999 FEW023 SCT035 02/01 Q0993 NOSIG
EHRD - Rotterdam Airpor, Netherlands
Distance from station: WZW 30km
Updated: 23/01/2021 21:55
Gedeeltelijk bewolkt
Gedeeltelijk bewolkt
 Wind van WNW
Wind: WNW 7 km/h
Temperatuur: 2°C
Hitte Index: 0°C
Dauwpunt: 1°C
Vochtigheid: 93%
Barometer: 993 hPa
Clouds: Gedeeltelijk bewolkt
Visibility: 10 km
2021/01/23 20:55 EHRD 232055Z AUTO 30004KT 9999 NSC 02/01 Q0993 NOSIG
 
EHGR - Gilze-Rijen Rnla, Netherlands
Distance from station: Z 57km
Updated: 23/01/2021 21:55
Lichte regen, Meestal bewolkt
Lichte regen, Meestal bewolkt
 Wind van W
Wind: W 15 km/h
Temperatuur: 2°C
Hitte Index: -2°C
Dauwpunt: 1°C
Vochtigheid: 93%
Barometer: 993 hPa
Overzicht: Lichte regen
Clouds: Meestal bewolkt
Visibility: 5 km
Cloud details: Few Clouds 152 m
Meestal bewolkt 183 m
Meestal bewolkt 244 m
2021/01/23 20:55 EHGR 232055Z AUTO 27008KT 240V320 5000 -RA FEW005 BKN006 BKN008 02/01 Q0993 RERA REDZ YLO
EHDL - Deelen Rnlafb, Netherlands
Distance from station: O 71km
Updated: 23/01/2021 21:55
Mist, Zwaar bewolkt
Mist, Zwaar bewolkt
 Wind van N
Wind: N 4 km/h
Temperatuur: 0°C
Dauwpunt: 0°C
Vochtigheid: 100%
Barometer: 993 hPa
Overzicht: Mist
Clouds: Zwaar bewolkt
Visibility: 7 km
Cloud details: Gedeeltelijk bewolkt 1189 m
Gedeeltelijk bewolkt 1707 m
Zwaar bewolkt 2256 m
2021/01/23 20:55 EHDL 232055Z AUTO 36002KT 7000 BR SCT039 SCT056 OVC074 00/00 Q0993 WHT
 
EHVK - Volkel Rnlafb, Netherlands
Distance from station: ZO 77km
Updated: 23/01/2021 21:55
Drizzle, Meestal bewolkt
Drizzle, Meestal bewolkt
 Wind van NNW
Wind: NNW 7 km/h
Temperatuur: 3°C
Hitte Index: 1°C
Dauwpunt: 2°C
Vochtigheid: 93%
Barometer: 993 hPa
Overzicht: Drizzle
Clouds: Meestal bewolkt
Visibility: 6 km
Cloud details: Meestal bewolkt 549 m
2021/01/23 20:55 EHVK 232055Z AUTO 34004KT 6000 DZ BKN018 03/02 Q0993 WHT
EHWO - Woensdrecht Rnla, Netherlands
Distance from station: ZZW 78km
Updated: 23/01/2021 21:55
Mist, Meestal bewolkt
Mist, Meestal bewolkt
 Wind van W
Wind: W 6 km/h
Temperatuur: 0°C
Dauwpunt: 0°C
Vochtigheid: 100%
Barometer: 994 hPa
Overzicht: Mist
Clouds: Meestal bewolkt
Visibility: 2 km
Cloud details: Few Clouds 0 m
Meestal bewolkt 1951 m
Meestal bewolkt 2286 m
2021/01/23 20:55 EHWO 232055Z AUTO 26003KT 2300 BR FEW000 BKN064 BKN075 00/00 Q0994 YLO
 
EHEH - Eindhoven Rnlafb, Netherlands
Distance from station: ZZO 81km
Updated: 23/01/2021 21:55
Lichte regen, Drizzle, Zwaar bewolkt
Lichte regen, Drizzle, Zwaar bewolkt
 Wind van NW
Wind: NW 17 km/h
Temperatuur: 2°C
Hitte Index: -2°C
Dauwpunt: 2°C
Vochtigheid: 100%
Barometer: 993 hPa
Overzicht: Lichte regen, Drizzle
Clouds: Zwaar bewolkt
Visibility: 6 km
Cloud details: Few Clouds 183 m
Zwaar bewolkt 244 m
2021/01/23 20:55 EHEH 232055Z AUTO 32009KT 290V020 6000 -RADZ FEW006 OVC008 02/02 Q0993 GRN
EHSC - Goeree Le Sea, Netherlands
Distance from station: W 81km
Updated: 23/01/2021 21:55

 Wind van NW
Wind: NW 19 km/h
Temperatuur: 4°C
Hitte Index: 0°C
Dauwpunt: 0°C
Vochtigheid: 75%
Barometer: 994 hPa
Visibility: 10 km
2021/01/23 20:55 EHSC 232055Z AUTO 32010KT 9999 ///////// 04/M00 Q0994 W06/H10